createdAt,value
2023-03-06T00:00:19.820Z,-3.00
2023-03-06T00:02:47.057Z,-3.07
2023-03-06T00:05:15.629Z,-3.09
2023-03-06T00:07:42.865Z,-3.07
2023-03-06T00:10:14.527Z,-3.07
2023-03-06T00:12:41.348Z,-2.97
2023-03-06T00:15:08.890Z,-2.96
2023-03-06T00:17:36.359Z,-2.97
2023-03-06T00:20:04.885Z,-2.96
2023-03-06T00:22:31.885Z,-2.97
2023-03-06T00:24:58.738Z,-2.94
2023-03-06T00:27:26.459Z,-2.93
2023-03-06T00:29:57.684Z,-2.92
2023-03-06T00:32:25.311Z,-2.88
2023-03-06T00:34:53.439Z,-2.92
2023-03-06T00:37:21.083Z,-2.93
2023-03-06T00:39:49.854Z,-2.97
2023-03-06T00:42:18.495Z,-2.98
2023-03-06T00:44:45.910Z,-2.98
2023-03-06T00:47:13.714Z,-2.97
2023-03-06T00:49:40.636Z,-2.96
2023-03-06T00:52:07.517Z,-2.96
2023-03-06T00:54:34.281Z,-2.97
2023-03-06T00:57:01.293Z,-3.00
2023-03-06T00:59:28.084Z,-2.97
2023-03-06T01:01:55.503Z,-2.98
2023-03-06T01:04:23.002Z,-2.99
2023-03-06T01:06:50.242Z,-3.03
2023-03-06T01:09:17.155Z,-3.03
2023-03-06T01:11:43.994Z,-3.03
2023-03-06T01:14:11.411Z,-3.03
2023-03-06T01:16:38.313Z,-3.07
2023-03-06T01:19:05.090Z,-3.07
2023-03-06T01:21:32.479Z,-3.08
2023-03-06T01:23:59.444Z,-3.13
2023-03-06T01:26:26.452Z,-3.11
2023-03-06T01:28:53.270Z,-3.09
2023-03-06T01:31:20.292Z,-3.09
2023-03-06T01:33:47.096Z,-3.11
2023-03-06T01:36:14.348Z,-3.11
2023-03-06T01:38:41.373Z,-3.11
2023-03-06T01:41:10.920Z,-3.11
2023-03-06T01:43:39.697Z,-3.11
2023-03-06T01:46:42.017Z,-3.10
2023-03-06T01:49:31.179Z,-3.09
2023-03-06T01:52:02.976Z,-3.08
2023-03-06T01:54:35.975Z,-3.09
2023-03-06T01:57:12.015Z,-3.10
2023-03-06T01:59:40.255Z,-3.11
2023-03-06T02:02:09.887Z,-3.13
2023-03-06T02:04:39.624Z,-3.11
2023-03-06T02:07:08.026Z,-3.12
2023-03-06T02:09:36.677Z,-3.13
2023-03-06T02:12:07.770Z,-3.12
2023-03-06T02:14:34.973Z,-3.08
2023-03-06T02:17:02.568Z,-3.08
2023-03-06T02:20:09.195Z,-3.06
2023-03-06T02:23:03.939Z,-3.05
2023-03-06T02:25:51.654Z,-3.04
2023-03-06T02:28:22.896Z,-3.09
2023-03-06T02:30:52.116Z,-3.09
2023-03-06T02:33:23.323Z,-3.12
2023-03-06T02:35:53.574Z,-3.10
2023-03-06T02:38:24.061Z,-3.12
2023-03-06T02:40:52.361Z,-3.13
2023-03-06T02:43:23.561Z,-3.15
2023-03-06T02:45:51.482Z,-3.16
2023-03-06T02:48:19.462Z,-3.15
2023-03-06T02:50:47.181Z,-3.15
2023-03-06T02:53:16.081Z,-3.17
2023-03-06T02:55:43.294Z,-3.18
2023-03-06T02:58:10.440Z,-3.18
2023-03-06T03:00:40.109Z,-3.16
2023-03-06T03:03:09.977Z,-3.16
2023-03-06T03:05:36.813Z,-3.19
2023-03-06T03:08:11.496Z,-3.21
2023-03-06T03:10:38.639Z,-3.23
2023-03-06T03:13:06.394Z,-3.26
2023-03-06T03:15:35.201Z,-3.29
2023-03-06T03:18:02.051Z,-3.29
2023-03-06T03:20:29.019Z,-3.29
2023-03-06T03:22:56.233Z,-3.29
2023-03-06T03:25:25.574Z,-3.29
2023-03-06T03:27:55.423Z,-3.27
2023-03-06T03:30:22.756Z,-3.31
2023-03-06T03:32:50.254Z,-3.36
2023-03-06T03:35:17.338Z,-3.34
2023-03-06T03:37:44.261Z,-3.35
2023-03-06T03:40:11.997Z,-3.34
2023-03-06T03:42:38.917Z,-3.35
2023-03-06T03:45:07.108Z,-3.34
2023-03-06T03:47:34.123Z,-3.35
2023-03-06T03:50:00.967Z,-3.37
2023-03-06T03:52:27.850Z,-3.37
2023-03-06T03:54:55.000Z,-3.35
2023-03-06T03:57:21.976Z,-3.38
2023-03-06T03:59:51.963Z,-3.41
2023-03-06T04:02:26.494Z,-3.47
2023-03-06T04:05:02.805Z,-3.50
2023-03-06T04:07:29.961Z,-3.51
2023-03-06T04:09:57.103Z,-3.51
2023-03-06T04:12:24.754Z,-3.52
2023-03-06T04:14:51.802Z,-3.51
2023-03-06T04:17:19.215Z,-3.51
2023-03-06T04:19:46.118Z,-3.53
2023-03-06T04:22:13.116Z,-3.55
2023-03-06T04:24:41.659Z,-3.55
2023-03-06T04:27:09.166Z,-3.57
2023-03-06T04:29:36.189Z,-3.57
2023-03-06T04:32:03.396Z,-3.59
2023-03-06T04:34:30.396Z,-3.60
2023-03-06T04:36:57.378Z,-3.61
2023-03-06T04:39:24.338Z,-3.62
2023-03-06T04:41:51.355Z,-3.64
2023-03-06T04:44:18.336Z,-3.66
2023-03-06T04:46:45.197Z,-3.69
2023-03-06T04:49:12.076Z,-3.71
2023-03-06T04:51:38.967Z,-3.72
2023-03-06T04:54:06.070Z,-3.72
2023-03-06T04:56:34.499Z,-3.73
2023-03-06T04:59:02.624Z,-3.77
2023-03-06T05:01:29.577Z,-3.79
2023-03-06T05:03:56.325Z,-3.88
2023-03-06T05:06:23.177Z,-3.95
2023-03-06T05:08:50.135Z,-4.00
2023-03-06T05:11:17.014Z,-4.03
2023-03-06T05:13:43.920Z,-4.06
2023-03-06T05:16:10.997Z,-4.06
2023-03-06T05:18:37.973Z,-4.10
2023-03-06T05:21:06.082Z,-4.18
2023-03-06T05:23:34.742Z,-4.23
2023-03-06T05:26:01.696Z,-4.26
2023-03-06T05:28:28.768Z,-4.28
2023-03-06T05:30:56.474Z,-4.30
2023-03-06T05:33:23.613Z,-4.31
2023-03-06T05:35:50.712Z,-4.33
2023-03-06T05:38:17.637Z,-4.30
2023-03-06T05:40:45.343Z,-4.25
2023-03-06T05:43:12.436Z,-4.19
2023-03-06T05:45:40.061Z,-4.09
2023-03-06T05:48:08.076Z,-3.93
2023-03-06T05:50:34.924Z,-3.82
2023-03-06T05:53:01.842Z,-3.72
2023-03-06T05:55:29.118Z,-3.61
2023-03-06T05:57:56.041Z,-3.50
2023-03-06T06:00:23.454Z,-3.45
2023-03-06T06:02:50.373Z,-3.47
2023-03-06T06:05:17.456Z,-3.53
2023-03-06T06:07:44.347Z,-3.50
2023-03-06T06:10:11.838Z,-3.46
2023-03-06T06:12:39.469Z,-3.42
2023-03-06T06:15:07.071Z,-3.37
2023-03-06T06:17:33.999Z,-3.31
2023-03-06T06:20:00.903Z,-3.24
2023-03-06T06:22:27.846Z,-3.19
2023-03-06T06:24:54.938Z,-3.14
2023-03-06T06:27:21.768Z,-3.08
2023-03-06T06:29:52.144Z,-3.06
2023-03-06T06:32:19.149Z,-2.95
2023-03-06T06:34:46.557Z,-2.91
2023-03-06T06:37:13.539Z,-2.84
2023-03-06T06:39:40.942Z,-2.78
2023-03-06T06:42:29.883Z,-2.72
2023-03-06T06:44:56.848Z,-2.66
2023-03-06T06:47:25.324Z,-2.60
2023-03-06T06:49:54.063Z,-2.54
2023-03-06T06:52:21.071Z,-2.45
2023-03-06T06:54:48.221Z,-2.37
2023-03-06T06:57:15.877Z,-2.26
2023-03-06T06:59:42.774Z,-2.19
2023-03-06T07:02:14.316Z,-2.06
2023-03-06T07:04:52.777Z,-1.89
2023-03-06T07:07:27.705Z,-1.74
2023-03-06T07:09:55.880Z,-1.67
2023-03-06T07:12:22.909Z,-1.54
2023-03-06T07:14:50.090Z,-1.43
2023-03-06T07:17:17.054Z,-1.29
2023-03-06T07:19:43.997Z,-1.16
2023-03-06T07:22:10.932Z,-1.05
2023-03-06T07:24:37.955Z,-0.93
2023-03-06T07:27:05.031Z,-0.78
2023-03-06T07:29:34.079Z,-0.65
2023-03-06T07:32:01.026Z,-0.52
2023-03-06T07:34:28.012Z,-0.41
2023-03-06T07:36:55.131Z,-0.31
2023-03-06T07:39:22.121Z,-0.19
2023-03-06T07:41:49.074Z,-0.09
2023-03-06T07:44:16.037Z,-0.01
2023-03-06T07:46:43.130Z,0.02
2023-03-06T07:49:10.148Z,0.12
2023-03-06T07:51:37.185Z,0.21
2023-03-06T07:54:04.155Z,0.33
2023-03-06T07:56:31.142Z,0.44
2023-03-06T07:58:58.076Z,0.48
2023-03-06T08:01:25.180Z,0.49
2023-03-06T08:03:52.291Z,0.55
2023-03-06T08:06:23.023Z,0.61
2023-03-06T08:08:51.267Z,0.69
2023-03-06T08:11:20.717Z,0.74
2023-03-06T08:13:48.908Z,0.83
2023-03-06T08:16:17.861Z,0.85
2023-03-06T08:18:46.356Z,0.85
2023-03-06T08:21:18.077Z,0.92
2023-03-06T08:23:46.511Z,1.03
2023-03-06T08:26:16.384Z,0.98
2023-03-06T08:28:43.889Z,0.98
2023-03-06T08:31:14.063Z,1.05
2023-03-06T08:33:41.512Z,1.13
2023-03-06T08:36:08.712Z,1.13
2023-03-06T08:38:35.664Z,1.19
2023-03-06T08:41:02.650Z,1.21
2023-03-06T08:43:29.930Z,1.23
2023-03-06T08:45:58.687Z,1.24
2023-03-06T08:48:25.801Z,1.25
2023-03-06T08:50:53.390Z,1.25
2023-03-06T08:53:22.727Z,1.26
2023-03-06T08:55:55.045Z,1.29
2023-03-06T08:58:22.010Z,1.26
2023-03-06T09:00:49.110Z,1.18
2023-03-06T09:03:16.089Z,1.25
2023-03-06T09:05:43.258Z,1.35
2023-03-06T09:08:10.208Z,1.39
2023-03-06T09:10:37.274Z,1.40
2023-03-06T09:13:04.267Z,1.52
2023-03-06T09:15:31.291Z,1.75
2023-03-06T09:17:58.372Z,2.06
2023-03-06T09:20:25.288Z,2.33
2023-03-06T09:22:52.313Z,2.56
2023-03-06T09:25:21.929Z,2.83
2023-03-06T09:28:01.853Z,2.92
2023-03-06T09:30:35.785Z,2.72
2023-03-06T09:33:02.617Z,2.51
2023-03-06T09:35:29.601Z,2.28
2023-03-06T09:37:56.792Z,2.08
2023-03-06T09:40:34.455Z,1.87
2023-03-06T09:43:01.614Z,1.82
2023-03-06T09:45:37.455Z,2.00
2023-03-06T09:48:15.430Z,2.14
2023-03-06T09:51:18.092Z,2.32
2023-03-06T09:54:13.452Z,2.46
2023-03-06T09:56:46.790Z,2.54
2023-03-06T09:59:19.721Z,2.61
2023-03-06T10:01:58.997Z,2.55
2023-03-06T10:04:52.131Z,2.42
2023-03-06T10:07:22.607Z,2.38
2023-03-06T10:09:54.473Z,2.34
2023-03-06T10:12:24.793Z,2.38
2023-03-06T10:15:16.707Z,2.51
2023-03-06T10:17:44.178Z,2.57
2023-03-06T10:20:35.373Z,2.54
2023-03-06T10:23:36.350Z,2.58
2023-03-06T10:26:11.222Z,2.62
2023-03-06T10:28:43.175Z,2.74
2023-03-06T10:31:21.328Z,2.99
2023-03-06T10:34:26.174Z,3.06
2023-03-06T10:36:54.552Z,2.97
2023-03-06T10:39:22.865Z,2.83
2023-03-06T10:41:52.875Z,2.71
2023-03-06T10:44:21.269Z,2.66
2023-03-06T10:46:51.713Z,2.63
2023-03-06T10:49:30.128Z,2.63
2023-03-06T10:52:01.124Z,2.65
2023-03-06T10:54:30.498Z,2.58
2023-03-06T10:56:57.543Z,2.52
2023-03-06T10:59:28.460Z,2.54
2023-03-06T11:02:16.695Z,2.55
2023-03-06T11:04:48.078Z,2.57
2023-03-06T11:07:23.498Z,2.59
2023-03-06T11:10:17.282Z,2.55
2023-03-06T11:12:44.652Z,2.52
2023-03-06T11:15:22.350Z,2.54
2023-03-06T11:17:54.569Z,2.53
2023-03-06T11:20:38.411Z,2.55
2023-03-06T11:23:44.742Z,2.50
2023-03-06T11:26:30.295Z,2.51
2023-03-06T11:29:38.879Z,2.55
2023-03-06T11:32:24.420Z,2.49
2023-03-06T11:35:13.734Z,2.52
2023-03-06T11:37:54.145Z,2.52
2023-03-06T11:40:27.167Z,2.58
2023-03-06T11:43:12.126Z,2.73
2023-03-06T11:45:45.512Z,2.85
2023-03-06T11:48:22.390Z,2.89
2023-03-06T11:50:51.920Z,2.92
2023-03-06T11:53:20.706Z,2.79
2023-03-06T11:56:02.509Z,2.67
2023-03-06T11:59:09.270Z,2.60
2023-03-06T12:01:40.896Z,2.61
2023-03-06T12:04:34.513Z,2.62
2023-03-06T12:07:19.372Z,2.64
2023-03-06T12:10:11.057Z,2.61
2023-03-06T12:13:04.289Z,2.58
2023-03-06T12:16:10.990Z,2.59
2023-03-06T12:19:02.331Z,2.53
2023-03-06T12:22:09.390Z,2.50
2023-03-06T12:25:18.823Z,2.58
2023-03-06T12:28:19.576Z,2.68
2023-03-06T12:31:26.496Z,2.66
2023-03-06T12:34:23.379Z,2.66
2023-03-06T12:37:07.400Z,2.65
2023-03-06T12:40:07.140Z,2.71
2023-03-06T12:43:00.997Z,2.71
2023-03-06T12:45:34.276Z,2.73
2023-03-06T12:48:02.202Z,2.76
2023-03-06T12:50:32.201Z,2.79
2023-03-06T12:53:01.926Z,2.87
2023-03-06T12:55:32.532Z,2.97
2023-03-06T12:58:39.196Z,3.15
2023-03-06T13:01:34.313Z,3.27
2023-03-06T13:04:25.834Z,3.25
2023-03-06T13:07:22.937Z,3.16
2023-03-06T13:10:14.503Z,3.07
2023-03-06T13:12:58.139Z,3.02
2023-03-06T13:15:43.067Z,2.98
2023-03-06T13:18:50.997Z,2.83
2023-03-06T13:21:46.018Z,2.55
2023-03-06T13:24:22.876Z,2.42
2023-03-06T13:27:11.400Z,2.21
2023-03-06T13:29:49.943Z,2.11
2023-03-06T13:32:20.057Z,2.01
2023-03-06T13:34:49.292Z,1.93
2023-03-06T13:37:36.686Z,1.84
2023-03-06T13:40:14.450Z,1.75
2023-03-06T13:43:20.010Z,1.69
2023-03-06T13:45:48.909Z,1.66
2023-03-06T13:48:43.827Z,1.63
2023-03-06T13:51:24.490Z,1.54
2023-03-06T13:54:20.847Z,1.52
2023-03-06T13:57:10.915Z,1.51
2023-03-06T14:00:17.751Z,1.54
2023-03-06T14:03:25.207Z,1.60
2023-03-06T14:05:52.468Z,1.66
2023-03-06T14:08:33.352Z,1.69
2023-03-06T14:11:05.489Z,1.73
2023-03-06T14:13:45.439Z,1.73
2023-03-06T14:16:22.972Z,1.74
2023-03-06T14:18:52.086Z,1.81
2023-03-06T14:21:40.568Z,1.90
2023-03-06T14:24:16.448Z,2.01
2023-03-06T14:26:46.159Z,2.17
2023-03-06T14:29:30.125Z,2.31
2023-03-06T14:31:59.666Z,2.42
2023-03-06T14:34:29.490Z,2.47
2023-03-06T14:37:00.437Z,2.42
2023-03-06T14:39:36.746Z,2.30
2023-03-06T14:42:19.585Z,2.22
2023-03-06T14:44:48.561Z,2.19
2023-03-06T14:47:27.253Z,2.19
2023-03-06T14:50:21.923Z,2.19
2023-03-06T14:52:57.454Z,2.14
2023-03-06T14:55:26.457Z,2.15
2023-03-06T14:57:57.951Z,2.15
2023-03-06T15:00:30.674Z,2.18
2023-03-06T15:02:57.938Z,2.18
2023-03-06T15:05:28.978Z,2.09
2023-03-06T15:07:59.757Z,2.03
2023-03-06T15:10:32.751Z,1.99
2023-03-06T15:13:11.494Z,1.94
2023-03-06T15:15:38.629Z,1.87
2023-03-06T15:18:28.771Z,1.77
2023-03-06T15:21:07.996Z,1.76
2023-03-06T15:23:38.250Z,1.72
2023-03-06T15:26:28.992Z,1.62
2023-03-06T15:29:09.311Z,1.54
2023-03-06T15:31:39.266Z,1.46
2023-03-06T15:34:18.796Z,1.39
2023-03-06T15:36:54.406Z,1.35
2023-03-06T15:39:36.281Z,1.31
2023-03-06T15:42:20.342Z,1.32
2023-03-06T15:44:53.249Z,1.28
2023-03-06T15:47:21.398Z,1.24
2023-03-06T15:49:52.153Z,1.22
2023-03-06T15:52:20.590Z,1.20
2023-03-06T15:54:47.863Z,1.20
2023-03-06T15:57:24.492Z,1.20
2023-03-06T15:59:51.800Z,1.21
2023-03-06T16:02:21.416Z,1.21
2023-03-06T16:04:49.430Z,1.20
2023-03-06T16:07:16.841Z,1.21
2023-03-06T16:09:44.330Z,1.19
2023-03-06T16:12:19.547Z,1.19
2023-03-06T16:14:47.970Z,1.21
2023-03-06T16:17:15.536Z,1.18
2023-03-06T16:19:43.297Z,1.13
2023-03-06T16:22:10.463Z,1.11
2023-03-06T16:24:37.982Z,1.08
2023-03-06T16:27:05.165Z,1.07
2023-03-06T16:29:32.213Z,1.07
2023-03-06T16:32:02.048Z,1.07
2023-03-06T16:34:29.191Z,1.05
2023-03-06T16:36:56.522Z,1.06
2023-03-06T16:39:24.319Z,1.04
2023-03-06T16:41:51.375Z,1.05
2023-03-06T16:44:18.679Z,1.02
2023-03-06T16:46:47.262Z,0.97
2023-03-06T16:49:19.748Z,0.90
2023-03-06T16:51:47.097Z,0.87
2023-03-06T16:54:14.293Z,0.83
2023-03-06T16:56:41.615Z,0.73
2023-03-06T16:59:08.669Z,0.69
2023-03-06T17:01:35.692Z,0.70
2023-03-06T17:04:02.757Z,0.62
2023-03-06T17:06:31.006Z,0.55
2023-03-06T17:09:01.036Z,0.46
2023-03-06T17:11:28.676Z,0.38
2023-03-06T17:13:55.631Z,0.39
2023-03-06T17:16:22.526Z,0.34
2023-03-06T17:18:49.797Z,0.17
2023-03-06T17:21:17.188Z,0.05
2023-03-06T17:23:44.795Z,-0.07
2023-03-06T17:26:18.849Z,-0.15
2023-03-06T17:28:46.508Z,-0.13
2023-03-06T17:31:22.606Z,-0.19
2023-03-06T17:33:51.456Z,-0.21
2023-03-06T17:36:19.612Z,-0.21
2023-03-06T17:38:47.033Z,-0.25
2023-03-06T17:41:14.687Z,-0.27
2023-03-06T17:43:42.074Z,-0.25
2023-03-06T17:46:11.218Z,-0.24
2023-03-06T17:48:38.504Z,-0.27
2023-03-06T17:51:05.934Z,-0.28
2023-03-06T17:53:33.577Z,-0.30
2023-03-06T17:56:04.191Z,-0.29
2023-03-06T17:58:31.574Z,-0.32
2023-03-06T18:00:59.020Z,-0.37
2023-03-06T18:03:26.209Z,-0.40
2023-03-06T18:06:00.964Z,-0.43
2023-03-06T18:08:27.938Z,-0.46
2023-03-06T18:11:04.157Z,-0.53
2023-03-06T18:13:32.201Z,-0.60
2023-03-06T18:16:01.602Z,-0.68
2023-03-06T18:18:29.642Z,-0.77
2023-03-06T18:20:57.364Z,-0.85
2023-03-06T18:23:24.829Z,-0.97
2023-03-06T18:25:52.280Z,-1.09
2023-03-06T18:28:19.622Z,-1.17
2023-03-06T18:30:47.383Z,-1.27
2023-03-06T18:33:15.305Z,-1.36
2023-03-06T18:35:44.722Z,-1.46
2023-03-06T18:38:17.191Z,-1.59
2023-03-06T18:40:44.333Z,-1.63
2023-03-06T18:43:11.186Z,-1.69
2023-03-06T18:45:38.402Z,-1.77
2023-03-06T18:48:05.871Z,-1.81
2023-03-06T18:50:34.764Z,-1.87
2023-03-06T18:53:01.572Z,-1.91
2023-03-06T18:55:28.495Z,-1.92
2023-03-06T18:57:55.308Z,-1.90
2023-03-06T19:00:23.794Z,-1.93
2023-03-06T19:02:51.116Z,-1.93
2023-03-06T19:05:18.063Z,-1.94
2023-03-06T19:07:44.924Z,-1.94
2023-03-06T19:10:12.106Z,-1.94
2023-03-06T19:12:38.945Z,-1.92
2023-03-06T19:15:06.345Z,-1.91
2023-03-06T19:17:33.418Z,-1.92
2023-03-06T19:20:00.263Z,-1.92
2023-03-06T19:22:27.109Z,-1.97
2023-03-06T19:24:54.043Z,-2.02
2023-03-06T19:27:21.508Z,-2.06
2023-03-06T19:29:48.319Z,-2.13
2023-03-06T19:32:15.322Z,-2.17
2023-03-06T19:34:42.247Z,-2.24
2023-03-06T19:37:09.063Z,-2.28
2023-03-06T19:39:35.904Z,-2.32
2023-03-06T19:42:04.686Z,-2.35
2023-03-06T19:44:31.502Z,-2.41
2023-03-06T19:46:58.300Z,-2.47
2023-03-06T19:49:25.626Z,-2.57
2023-03-06T19:51:52.492Z,-2.63
2023-03-06T19:54:23.542Z,-2.73
2023-03-06T19:56:50.749Z,-2.78
2023-03-06T19:59:17.531Z,-2.85
2023-03-06T20:01:44.419Z,-2.88
2023-03-06T20:04:11.653Z,-2.91
2023-03-06T20:06:39.021Z,-2.96
2023-03-06T20:09:09.016Z,-3.02
2023-03-06T20:11:37.653Z,-3.04
2023-03-06T20:14:09.630Z,-3.06
2023-03-06T20:16:37.885Z,-3.12
2023-03-06T20:19:08.507Z,-3.16
2023-03-06T20:21:43.017Z,-3.17
2023-03-06T20:24:17.481Z,-3.19
2023-03-06T20:26:49.727Z,-3.27
2023-03-06T20:29:23.748Z,-3.28
2023-03-06T20:32:02.254Z,-3.32
2023-03-06T20:34:33.484Z,-3.36
2023-03-06T20:37:01.779Z,-3.40
2023-03-06T20:39:29.399Z,-3.45
2023-03-06T20:42:00.478Z,-3.48
2023-03-06T20:44:29.679Z,-3.50
2023-03-06T20:46:56.831Z,-3.53
2023-03-06T20:49:27.421Z,-3.56
2023-03-06T20:51:57.034Z,-3.57
2023-03-06T20:54:23.994Z,-3.63
2023-03-06T20:56:51.522Z,-3.71
2023-03-06T20:59:20.472Z,-3.72
2023-03-06T21:01:49.301Z,-3.76
2023-03-06T21:04:18.106Z,-3.76
2023-03-06T21:06:47.486Z,-3.78
2023-03-06T21:09:17.082Z,-3.80
2023-03-06T21:11:44.300Z,-3.79
2023-03-06T21:14:17.511Z,-3.82
2023-03-06T21:16:44.925Z,-3.86
2023-03-06T21:19:11.917Z,-3.88
2023-03-06T21:21:38.860Z,-3.92
2023-03-06T21:24:05.916Z,-3.97
2023-03-06T21:26:34.188Z,-3.99
2023-03-06T21:29:01.551Z,-4.00
2023-03-06T21:31:29.623Z,-4.01
2023-03-06T21:33:57.078Z,-4.06
2023-03-06T21:36:24.807Z,-4.11
2023-03-06T21:38:52.811Z,-4.09
2023-03-06T21:41:24.914Z,-4.06
2023-03-06T21:43:56.904Z,-4.09
2023-03-06T21:46:24.302Z,-4.13
2023-03-06T21:48:51.223Z,-4.14
2023-03-06T21:51:19.726Z,-4.18
2023-03-06T21:53:47.660Z,-4.19
2023-03-06T21:56:17.232Z,-4.24
2023-03-06T21:58:44.823Z,-4.25
2023-03-06T22:01:13.989Z,-4.26
2023-03-06T22:03:41.050Z,-4.29
2023-03-06T22:06:12.608Z,-4.33
2023-03-06T22:08:40.319Z,-4.32
2023-03-06T22:11:09.750Z,-4.35
2023-03-06T22:13:37.402Z,-4.36
2023-03-06T22:16:04.884Z,-4.37
2023-03-06T22:18:31.909Z,-4.44
2023-03-06T22:20:58.839Z,-4.47
2023-03-06T22:23:26.174Z,-4.50
2023-03-06T22:25:53.052Z,-4.51
2023-03-06T22:28:19.958Z,-4.55
2023-03-06T22:30:46.815Z,-4.54
2023-03-06T22:33:13.740Z,-4.58
2023-03-06T22:35:40.587Z,-4.60
2023-03-06T22:38:07.598Z,-4.58
2023-03-06T22:40:34.432Z,-4.60
2023-03-06T22:43:01.324Z,-4.59
2023-03-06T22:45:28.201Z,-4.54
2023-03-06T22:48:02.362Z,-4.55
2023-03-06T22:50:36.041Z,-4.54
2023-03-06T22:53:02.936Z,-4.56
2023-03-06T22:55:29.770Z,-4.54
2023-03-06T22:57:56.718Z,-4.58
2023-03-06T23:00:23.527Z,-4.58
2023-03-06T23:02:50.396Z,-4.58
2023-03-06T23:05:17.297Z,-4.61
2023-03-06T23:07:44.290Z,-4.63
2023-03-06T23:10:11.442Z,-4.66
2023-03-06T23:12:58.240Z,-4.71
2023-03-06T23:15:45.139Z,-4.70
2023-03-06T23:18:32.596Z,-4.70
2023-03-06T23:21:20.846Z,-4.73
2023-03-06T23:24:07.811Z,-4.78
2023-03-06T23:26:35.103Z,-4.82
2023-03-06T23:29:02.194Z,-4.87
2023-03-06T23:31:30.207Z,-4.89
2023-03-06T23:33:59.225Z,-4.90
2023-03-06T23:36:26.727Z,-4.90
2023-03-06T23:38:53.655Z,-4.93
2023-03-06T23:41:21.617Z,-4.92
2023-03-06T23:43:49.384Z,-4.91
2023-03-06T23:46:16.915Z,-4.95
2023-03-06T23:48:44.244Z,-4.95
2023-03-06T23:51:19.520Z,-4.96
2023-03-06T23:53:47.941Z,-4.99
2023-03-06T23:56:15.472Z,-4.98
2023-03-06T23:58:42.581Z,-5.04
